Time;durP1;ratioP1;P1;durP2;ratioP2;P2;SDS_P1;SDS_P2;PMS_P1;PMS_P2;Temp;Humidity;BMP_temperature;BMP_pressure;BME280_temperature;BME280_humidity;BME280_pressure;Samples;Min_cycle;Max_cycle;Signal;HPM_P1;HPM_P2
2022/05/18 00:01:07;;;;;;;4.83;3.60;;;16.00;99.90;;;;;;4916376;28;20210;-92
2022/05/18 00:03:36;;;;;;;4.37;3.77;;;16.10;99.90;;;;;;4928281;28;20479;-91
2022/05/18 00:06:03;;;;;;;3.80;3.50;;;16.20;99.90;;;;;;4919501;28;20475;-91
2022/05/18 00:08:35;;;;;;;4.33;4.03;;;16.40;99.90;;;;;;4922315;28;20556;-90
2022/05/18 00:11:32;;;;;;;4.47;4.07;;;16.50;99.90;;;;;;4902669;29;20452;-91
2022/05/18 00:13:58;;;;;;;4.00;3.70;;;16.60;99.90;;;;;;4929634;28;20443;-90
2022/05/18 00:16:26;;;;;;;4.27;3.97;;;16.60;99.90;;;;;;4915263;29;20455;-90
2022/05/18 00:18:52;;;;;;;5.10;3.70;;;16.60;99.90;;;;;;4915077;29;20199;-91
2022/05/18 00:21:18;;;;;;;4.40;3.93;;;16.60;99.90;;;;;;4913355;29;20574;-91
2022/05/18 00:23:44;;;;;;;4.10;3.80;;;16.40;99.90;;;;;;4924146;28;21113;-91
2022/05/18 00:26:10;;;;;;;4.23;3.90;;;16.40;99.90;;;;;;4899344;29;20183;-92
2022/05/18 00:28:35;;;;;;;4.07;3.73;;;16.30;99.90;;;;;;4905460;29;20969;-92
2022/05/18 00:31:02;;;;;;;4.27;3.87;;;16.20;99.90;;;;;;4915179;29;20219;-91
2022/05/18 00:33:28;;;;;;;4.10;3.80;;;16.20;99.90;;;;;;4919066;29;20183;-91
2022/05/18 00:35:54;;;;;;;4.10;3.80;;;16.10;99.90;;;;;;4938935;28;20448;-90
2022/05/18 00:38:20;;;;;;;4.43;3.87;;;16.10;99.90;;;;;;4907643;29;21502;-90
2022/05/18 00:40:48;;;;;;;4.50;4.10;;;16.00;99.90;;;;;;4898649;29;20583;-91
2022/05/18 00:43:33;;;;;;;4.00;3.60;;;15.90;99.90;;;;;;4899660;29;20187;-90
2022/05/18 00:46:03;;;;;;;4.53;4.00;;;15.70;99.90;;;;;;4911619;28;20509;-90
2022/05/18 00:48:29;;;;;;;4.73;4.40;;;15.70;99.90;;;;;;4914155;28;20526;-91
2022/05/18 00:50:58;;;;;;;4.30;4.00;;;15.60;99.90;;;;;;4911268;28;20447;-91
2022/05/18 00:53:28;;;;;;;5.20;4.70;;;15.60;99.90;;;;;;4917828;28;20517;-90
2022/05/18 00:56:03;;;;;;;4.97;4.00;;;15.50;99.90;;;;;;4904889;29;20483;-90
2022/05/18 00:58:41;;;;;;;5.50;4.30;;;15.50;99.90;;;;;;4923311;28;20447;-90
2022/05/18 01:01:08;;;;;;;5.03;3.67;;;15.50;99.90;;;;;;4899018;29;20582;-90
2022/05/18 01:03:38;;;;;;;4.40;4.10;;;15.40;99.90;;;;;;4917512;28;20979;-90
2022/05/18 01:06:19;;;;;;;5.33;4.60;;;15.30;99.90;;;;;;4937264;28;20443;-91
2022/05/18 01:09:03;;;;;;;5.37;4.70;;;15.20;99.90;;;;;;4928393;28;22526;-91
2022/05/18 01:11:33;;;;;;;5.97;3.93;;;15.10;99.90;;;;;;4916824;28;20483;-90
2022/05/18 01:13:59;;;;;;;4.60;4.23;;;15.00;99.90;;;;;;4907729;29;21003;-90
2022/05/18 01:16:26;;;;;;;5.27;4.87;;;15.00;99.90;;;;;;4934019;28;20443;-90
2022/05/18 01:18:52;;;;;;;4.90;4.10;;;14.90;99.90;;;;;;4928824;28;20968;-90
2022/05/18 01:21:18;;;;;;;5.17;4.37;;;14.80;99.90;;;;;;4916819;28;20534;-90
2022/05/18 01:24:13;;;;;;;5.00;4.40;;;14.80;99.90;;;;;;4922244;28;20534;-91
2022/05/18 01:26:45;;;;;;;4.70;4.40;;;14.90;99.90;;;;;;4897056;29;20451;-92
2022/05/18 01:29:11;;;;;;;4.53;4.23;;;14.90;99.90;;;;;;4908405;29;20488;-91
2022/05/18 01:31:54;;;;;;;5.57;4.23;;;15.00;99.90;;;;;;4925028;28;21177;-92
2022/05/18 01:34:24;;;;;;;5.80;4.93;;;15.10;99.90;;;;;;4915335;28;20471;-91
2022/05/18 01:36:50;;;;;;;5.33;4.80;;;15.10;99.90;;;;;;4905863;29;20534;-91
2022/05/18 01:39:22;;;;;;;4.90;4.47;;;15.20;99.90;;;;;;4900502;29;21536;-90
2022/05/18 01:42:19;;;;;;;6.33;5.17;;;15.20;99.90;;;;;;4916863;28;21645;-89
2022/05/18 01:44:45;;;;;;;6.17;5.67;;;15.10;99.90;;;;;;4916762;28;21188;-90
2022/05/18 01:47:13;;;;;;;6.10;5.60;;;15.10;99.90;;;;;;4935900;28;21263;-91
2022/05/18 01:49:42;;;;;;;6.17;5.67;;;15.10;99.90;;;;;;4900499;29;20223;-91
2022/05/18 01:52:10;;;;;;;5.57;4.97;;;15.10;99.90;;;;;;4913695;28;20447;-90
2022/05/18 01:54:41;;;;;;;11.37;5.80;;;15.10;99.90;;;;;;4922463;28;20464;-90
2022/05/18 01:57:07;;;;;;;5.50;5.10;;;15.00;99.90;;;;;;4915577;28;20440;-90
2022/05/18 01:59:33;;;;;;;5.33;4.80;;;14.80;99.90;;;;;;4905470;29;20443;-91
2022/05/18 02:01:59;;;;;;;5.50;5.07;;;14.80;99.90;;;;;;4915810;29;20853;-91
2022/05/18 02:04:25;;;;;;;5.70;5.20;;;14.80;99.90;;;;;;4912102;28;20960;-90
2022/05/18 02:06:51;;;;;;;5.90;5.00;;;14.70;99.90;;;;;;4897745;29;20452;-90
2022/05/18 02:09:19;;;;;;;5.27;4.80;;;14.60;99.90;;;;;;4927256;28;20626;-90
2022/05/18 02:11:45;;;;;;;5.73;4.40;;;14.60;99.90;;;;;;4915365;28;20226;-92
2022/05/18 02:14:11;;;;;;;6.53;4.67;;;14.60;99.90;;;;;;4919445;28;21154;-90
2022/05/18 02:16:37;;;;;;;5.23;4.83;;;14.60;99.90;;;;;;4927825;28;20595;-90
2022/05/18 02:19:03;;;;;;;5.20;4.70;;;14.50;99.90;;;;;;4904683;29;20202;-89
2022/05/18 02:21:29;;;;;;;5.90;5.03;;;14.50;99.90;;;;;;4918524;28;20893;-91
2022/05/18 02:23:55;;;;;;;6.20;5.70;;;14.50;99.90;;;;;;4900396;29;20450;-91
2022/05/18 02:26:21;;;;;;;6.30;5.10;;;14.40;99.90;;;;;;4925412;28;20463;-90
2022/05/18 02:28:47;;;;;;;5.13;4.70;;;14.40;99.90;;;;;;4917992;28;20443;-90
2022/05/18 02:31:14;;;;;;;5.23;4.73;;;14.30;99.90;;;;;;4903937;29;20200;-90
2022/05/18 02:33:40;;;;;;;7.80;5.37;;;14.30;99.90;;;;;;4928933;28;20486;-90
2022/05/18 02:36:07;;;;;;;5.47;4.43;;;14.30;99.90;;;;;;4897257;29;20520;-91
2022/05/18 02:38:33;;;;;;;4.60;4.30;;;14.20;99.90;;;;;;4912876;28;20439;-92
2022/05/18 02:40:59;;;;;;;5.00;4.50;;;14.10;99.90;;;;;;4893374;29;20471;-91
2022/05/18 02:43:26;;;;;;;5.03;4.53;;;14.10;99.90;;;;;;4902160;29;21199;-91
2022/05/18 02:46:11;;;;;;;4.87;4.37;;;14.00;99.90;;;;;;4914482;28;20447;-91
2022/05/18 02:48:37;;;;;;;5.17;4.70;;;14.00;99.90;;;;;;4901391;29;20444;-92
2022/05/18 02:51:04;;;;;;;4.67;4.37;;;13.90;99.90;;;;;;4914946;28;20502;-92
2022/05/18 02:53:30;;;;;;;5.40;4.60;;;13.90;99.90;;;;;;4914959;28;20435;-90
2022/05/18 02:56:08;;;;;;;4.80;4.40;;;13.80;99.90;;;;;;4907907;29;21043;-91
2022/05/18 02:58:42;;;;;;;5.80;5.03;;;13.80;99.90;;;;;;4916683;28;21288;-94
2022/05/18 03:01:10;;;;;;;7.50;5.40;;;13.90;99.90;;;;;;4919149;28;20466;-93
2022/05/18 03:03:36;;;;;;;6.53;5.30;;;13.80;99.90;;;;;;4932956;28;20575;-95
2022/05/18 03:06:03;;;;;;;5.20;4.80;;;13.80;99.90;;;;;;4925505;28;20508;-94
2022/05/18 03:08:31;;;;;;;5.30;4.90;;;14.00;99.90;;;;;;4923655;28;20892;-96
2022/05/18 03:11:00;;;;;;;5.20;4.80;;;14.10;99.90;;;;;;4921101;29;20475;-95
2022/05/18 03:13:28;;;;;;;5.83;4.40;;;14.20;99.90;;;;;;4923969;28;20455;-96
2022/05/18 03:15:57;;;;;;;4.80;4.40;;;14.20;99.90;;;;;;4922584;28;21054;-96
2022/05/18 03:18:23;;;;;;;5.90;5.00;;;14.20;99.90;;;;;;4934778;28;20539;-95
2022/05/18 03:23:33;;;;;;;5.57;4.97;;;14.00;99.90;;;;;;4920768;29;20665;-94
2022/05/18 03:26:08;;;;;;;5.10;4.60;;;13.90;99.90;;;;;;4943517;28;20530;-94
2022/05/18 03:28:35;;;;;;;6.43;5.83;;;13.80;99.90;;;;;;4908870;29;20203;-95
2022/05/18 03:31:01;;;;;;;6.53;5.93;;;13.80;99.90;;;;;;4909804;29;21040;-95
2022/05/18 03:33:27;;;;;;;5.70;5.20;;;13.90;99.90;;;;;;4933355;28;20452;-94
2022/05/18 03:36:02;;;;;;;5.63;5.10;;;13.80;99.90;;;;;;4906927;29;20530;-93
2022/05/18 03:38:28;;;;;;;5.80;5.27;;;13.80;99.90;;;;;;4912262;28;21070;-91
2022/05/18 03:40:54;;;;;;;5.90;5.33;;;13.80;99.90;;;;;;4913191;28;20555;-94
2022/05/18 03:43:39;;;;;;;5.80;5.30;;;13.80;99.90;;;;;;4900800;29;20250;-92
2022/05/18 03:46:08;;;;;;;5.60;4.87;;;13.70;99.90;;;;;;4924338;28;20436;-92
2022/05/18 03:48:37;;;;;;;5.10;4.70;;;13.70;99.90;;;;;;4903854;29;20458;-94
2022/05/18 03:51:05;;;;;;;6.60;5.13;;;13.70;99.90;;;;;;4921439;28;20512;-94
2022/05/18 03:53:36;;;;;;;5.67;5.27;;;13.70;99.90;;;;;;4912053;29;20470;-92
2022/05/18 03:56:03;;;;;;;4.77;4.47;;;13.80;99.90;;;;;;4917591;28;20447;-94
2022/05/18 03:58:28;;;;;;;5.20;4.70;;;13.80;99.90;;;;;;4900745;29;20444;-92
2022/05/18 04:00:56;;;;;;;6.50;5.90;;;13.80;99.90;;;;;;4913523;28;20596;-92
2022/05/18 04:03:25;;;;;;;6.00;5.50;;;13.80;99.90;;;;;;4914186;28;20195;-92
2022/05/18 04:05:52;;;;;;;6.20;5.60;;;13.80;99.90;;;;;;4920550;28;21826;-91
2022/05/18 04:08:19;;;;;;;6.53;5.23;;;13.70;99.90;;;;;;4895107;29;21006;-91
2022/05/18 04:10:44;;;;;;;7.03;6.37;;;13.70;99.90;;;;;;4903742;29;20507;-94
2022/05/18 04:13:16;;;;;;;6.23;5.63;;;13.70;99.90;;;;;;4927978;28;20795;-92
2022/05/18 04:15:41;;;;;;;6.80;6.20;;;13.80;99.90;;;;;;4923223;28;20180;-95
2022/05/18 04:18:08;;;;;;;5.43;4.93;;;13.80;99.90;;;;;;4904575;29;20459;-93
2022/05/18 04:20:51;;;;;;;5.73;5.20;;;13.90;99.90;;;;;;4912544;28;20538;-92
2022/05/18 04:23:17;;;;;;;5.53;5.13;;;14.00;99.90;;;;;;4896834;29;20956;-93
2022/05/18 04:25:43;;;;;;;5.40;4.93;;;14.10;99.90;;;;;;4914409;28;22197;-93
2022/05/18 04:28:13;;;;;;;5.70;5.30;;;14.30;99.90;;;;;;4930064;28;21072;-89
2022/05/18 04:30:41;;;;;;;5.43;5.03;;;14.20;99.90;;;;;;4923322;28;21311;-90
2022/05/18 04:33:06;;;;;;;5.80;4.97;;;14.30;99.90;;;;;;4916477;28;20439;-90
2022/05/18 04:35:32;;;;;;;5.03;4.60;;;14.30;99.90;;;;;;4915753;28;20463;-89
2022/05/18 04:37:57;;;;;;;5.77;5.20;;;14.30;99.90;;;;;;4921703;28;20197;-90
2022/05/18 04:40:24;;;;;;;5.93;5.43;;;14.30;99.90;;;;;;4924801;28;21603;-90
2022/05/18 04:42:49;;;;;;;7.03;5.90;;;14.20;99.90;;;;;;4901806;29;20189;-90
2022/05/18 04:45:18;;;;;;;6.60;5.97;;;14.30;99.90;;;;;;4921394;28;20462;-92
2022/05/18 04:47:44;;;;;;;6.03;5.53;;;14.30;99.90;;;;;;4916639;29;20190;-91
2022/05/18 04:50:10;;;;;;;5.83;5.33;;;14.40;99.90;;;;;;4909964;29;20479;-91
2022/05/18 04:52:50;;;;;;;5.83;5.23;;;14.50;99.90;;;;;;4922519;28;20187;-91
2022/05/18 04:55:17;;;;;;;6.40;5.80;;;14.60;99.90;;;;;;4921619;28;20964;-92
2022/05/18 04:57:43;;;;;;;5.73;5.23;;;14.60;99.90;;;;;;4906779;29;20447;-93
2022/05/18 05:00:11;;;;;;;5.87;5.37;;;14.70;99.90;;;;;;4908294;28;20447;-92
2022/05/18 05:02:38;;;;;;;5.97;5.50;;;14.70;99.90;;;;;;4920318;28;20247;-90
2022/05/18 05:05:10;;;;;;;6.20;5.70;;;14.70;99.90;;;;;;4915505;28;20455;-91
2022/05/18 05:07:36;;;;;;;6.17;5.67;;;14.90;99.90;;;;;;4902952;29;20505;-91
2022/05/18 05:10:02;;;;;;;7.10;6.40;;;15.00;99.90;;;;;;4925349;28;21000;-91
2022/05/18 05:12:29;;;;;;;6.40;5.90;;;15.10;99.90;;;;;;4911784;28;20184;-90
2022/05/18 05:14:55;;;;;;;7.47;6.70;;;15.30;99.90;;;;;;4911790;28;21150;-91
2022/05/18 05:17:20;;;;;;;6.70;6.17;;;15.40;99.90;;;;;;4898533;29;20451;-91
2022/05/18 05:19:46;;;;;;;5.90;5.40;;;15.50;99.90;;;;;;4902906;29;20204;-91
2022/05/18 05:22:14;;;;;;;5.90;5.37;;;15.60;99.90;;;;;;4900402;29;20196;-91
2022/05/18 05:24:39;;;;;;;6.30;5.80;;;15.70;99.90;;;;;;4915844;28;20194;-91
2022/05/18 05:27:05;;;;;;;6.53;6.03;;;15.90;99.90;;;;;;4905721;29;20439;-91
2022/05/18 05:29:31;;;;;;;6.07;5.57;;;15.90;99.90;;;;;;4898037;29;20298;-90
2022/05/18 05:32:05;;;;;;;6.73;6.13;;;16.00;99.90;;;;;;4915079;29;20196;-91
2022/05/18 05:34:30;;;;;;;7.00;6.30;;;16.10;99.90;;;;;;4920051;29;20196;-90
2022/05/18 05:36:56;;;;;;;7.00;6.50;;;16.10;99.90;;;;;;4930820;28;20444;-90
2022/05/18 05:39:22;;;;;;;6.90;5.83;;;16.30;99.90;;;;;;4934217;28;20656;-90
2022/05/18 05:41:47;;;;;;;8.60;6.23;;;16.40;99.90;;;;;;4916439;29;21423;-90
2022/05/18 05:44:14;;;;;;;8.53;5.33;;;16.60;99.90;;;;;;4935742;28;20380;-89
2022/05/18 05:46:39;;;;;;;9.40;6.40;;;16.80;99.90;;;;;;4932999;28;20564;-90
2022/05/18 05:49:05;;;;;;;5.10;4.60;;;16.90;99.90;;;;;;4934991;28;20451;-90
2022/05/18 05:51:31;;;;;;;5.70;5.20;;;16.90;99.90;;;;;;4939988;28;20444;-90
2022/05/18 05:53:59;;;;;;;5.60;5.10;;;17.00;99.90;;;;;;4921395;29;20725;-91
2022/05/18 05:56:25;;;;;;;6.40;5.80;;;17.00;99.90;;;;;;4922999;29;20184;-91
2022/05/18 05:58:53;;;;;;;5.50;5.00;;;17.10;99.90;;;;;;4942908;28;21002;-90
2022/05/18 06:01:19;;;;;;;6.57;4.87;;;17.10;99.90;;;;;;4917346;29;20542;-91
2022/05/18 06:03:46;;;;;;;5.60;5.10;;;17.20;99.90;;;;;;4931607;28;20820;-90
2022/05/18 06:06:13;;;;;;;6.00;5.20;;;17.30;99.90;;;;;;4932830;28;20483;-89
2022/05/18 06:08:40;;;;;;;6.00;5.50;;;17.30;99.90;;;;;;4932131;28;20820;-91
2022/05/18 06:11:08;;;;;;;5.40;5.00;;;17.30;99.90;;;;;;4931827;28;20478;-89
2022/05/18 06:13:33;;;;;;;5.80;5.30;;;17.40;99.90;;;;;;4944713;28;20466;-90
2022/05/18 06:16:10;;;;;;;6.00;5.20;;;17.50;99.90;;;;;;4914678;29;21008;-90
2022/05/18 06:18:40;;;;;;;7.93;5.20;;;17.50;99.90;;;;;;4933846;28;20191;-90
2022/05/18 06:21:06;;;;;;;6.53;5.67;;;17.40;99.90;;;;;;4914547;29;21091;-91
2022/05/18 06:23:31;;;;;;;5.97;5.47;;;17.40;99.90;;;;;;4929709;28;20451;-90
2022/05/18 06:26:02;;;;;;;5.80;5.30;;;17.50;99.90;;;;;;4932450;28;20452;-91
2022/05/18 06:28:28;;;;;;;6.07;4.97;;;17.50;99.90;;;;;;4931451;28;20194;-91
2022/05/18 06:30:54;;;;;;;5.00;4.60;;;17.70;99.90;;;;;;4912557;29;20670;-90
2022/05/18 06:33:19;;;;;;;6.50;6.00;;;17.80;99.90;;;;;;4937427;28;20191;-90
2022/05/18 06:35:47;;;;;;;6.37;5.80;;;18.00;99.90;;;;;;4922715;29;20684;-90
2022/05/18 06:38:14;;;;;;;5.27;4.73;;;18.30;99.90;;;;;;4913533;29;20331;-89
2022/05/18 06:43:26;;;;;;;7.73;4.93;;;18.60;99.90;;;;;;4918827;29;20585;-92
2022/05/18 06:45:52;;;;;;;6.57;5.57;;;18.80;99.90;;;;;;4930151;28;20452;-93
2022/05/18 06:48:17;;;;;;;6.13;5.43;;;19.00;99.90;;;;;;4915332;29;20503;-90
2022/05/18 06:50:43;;;;;;;6.73;5.17;;;19.20;99.90;;;;;;4913265;29;20227;-91
2022/05/18 06:53:08;;;;;;;5.37;4.97;;;19.30;99.90;;;;;;4916581;29;20685;-93
2022/05/18 06:58:13;;;;;;;6.20;5.37;;;19.30;99.90;;;;;;5042235;23;20506;-95
2022/05/18 07:00:38;;;;;;;9.27;6.37;;;19.30;99.90;;;;;;4916229;29;20466;-89
2022/05/18 07:03:04;;;;;;;9.90;4.80;;;19.40;99.90;;;;;;4905882;29;20440;-94
2022/05/18 07:05:33;;;;;;;5.50;5.00;;;19.60;99.90;;;;;;4925761;29;20200;-92
2022/05/18 07:07:59;;;;;;;5.97;5.47;;;19.80;99.90;;;;;;4927053;29;20934;-91
2022/05/18 07:10:41;;;;;;;5.27;4.70;;;20.00;99.90;;;;;;4904891;29;20495;-96
2022/05/18 07:13:16;;;;;;;6.10;5.50;;;20.20;99.90;;;;;;4936623;29;20271;-94
2022/05/18 07:15:42;;;;;;;5.50;4.83;;;20.30;99.90;;;;;;4930241;29;20444;-96
2022/05/18 07:18:09;;;;;;;4.93;4.63;;;20.30;99.90;;;;;;4929536;29;20452;-96
2022/05/18 07:20:35;;;;;;;4.73;4.43;;;20.40;99.90;;;;;;4902872;29;20501;-95
2022/05/18 07:23:06;;;;;;;5.77;5.37;;;20.60;99.90;;;;;;4930234;29;20963;-96
2022/05/18 07:28:13;;;;;;;7.33;4.80;;;20.80;99.90;;;;;;4916745;29;20474;-90
2022/05/18 07:30:39;;;;;;;4.67;4.20;;;20.80;99.90;;;;;;4931538;28;20903;-94
2022/05/18 07:33:05;;;;;;;4.30;4.00;;;21.00;99.90;;;;;;4942423;28;20454;-91
2022/05/18 07:35:30;;;;;;;7.37;4.30;;;21.20;99.90;;;;;;4924013;28;20210;-91
2022/05/18 07:37:57;;;;;;;4.33;4.03;;;21.20;99.90;;;;;;4912975;28;20538;-91
2022/05/18 07:40:24;;;;;;;5.67;3.90;;;21.40;99.90;;;;;;4938263;28;21967;-94
2022/05/18 07:42:54;;;;;;;4.23;3.83;;;21.30;99.90;;;;;;4920338;28;20531;-89
2022/05/18 07:45:21;;;;;;;4.20;3.83;;;21.30;99.90;;;;;;4909999;29;20553;-88
2022/05/18 07:47:46;;;;;;;4.00;3.70;;;21.00;99.90;;;;;;4917079;28;20515;-88
2022/05/18 07:50:12;;;;;;;4.27;3.97;;;21.20;99.90;;;;;;4914305;28;20482;-91
2022/05/18 07:52:38;;;;;;;5.77;4.20;;;21.40;99.90;;;;;;4913883;28;20191;-91
2022/05/18 07:55:05;;;;;;;5.47;4.10;;;21.60;99.90;;;;;;4927952;29;20447;-92
2022/05/18 07:57:36;;;;;;;6.07;4.23;;;21.80;99.90;;;;;;4908203;28;20518;-94
2022/05/18 08:00:03;;;;;;;6.90;4.60;;;22.00;99.90;;;;;;4934946;29;20969;-95
2022/05/18 08:02:30;;;;;;;4.30;4.00;;;22.20;99.90;;;;;;4905013;28;20454;-92
2022/05/18 08:05:05;;;;;;;4.30;3.90;;;22.30;99.90;;;;;;4911124;28;20454;-92
2022/05/18 08:07:31;;;;;;;4.30;3.90;;;22.20;99.90;;;;;;4914055;28;20455;-90
2022/05/18 08:15:30;;;;;;;4.60;4.20;;;22.40;99.90;;;;;;4940957;28;20458;-91
2022/05/18 08:17:56;;;;;;;4.63;4.20;;;22.40;99.90;;;;;;4927861;28;21376;-91
2022/05/18 08:20:44;;;;;;;4.23;3.83;;;22.70;99.90;;;;;;4918415;28;20489;-91
2022/05/18 08:23:10;;;;;;;4.57;4.10;;;22.70;99.90;;;;;;4922692;28;20461;-92
2022/05/18 08:25:39;;;;;;;4.33;4.03;;;22.90;99.90;;;;;;4909412;28;20446;-90
2022/05/18 08:28:06;;;;;;;4.87;4.47;;;22.80;99.00;;;;;;4904179;29;21969;-91
2022/05/18 08:30:32;;;;;;;4.73;4.33;;;22.90;99.90;;;;;;4904923;28;20446;-90
2022/05/18 08:32:58;;;;;;;6.17;4.10;;;23.00;99.90;;;;;;4917004;29;20445;-89
2022/05/18 08:35:24;;;;;;;5.43;4.23;;;23.20;98.80;;;;;;4912074;28;20176;-90
2022/05/18 08:37:50;;;;;;;4.30;3.80;;;23.40;99.90;;;;;;4913427;28;21249;-90
2022/05/18 08:40:18;;;;;;;4.20;3.80;;;23.40;99.40;;;;;;4908909;28;20214;-90
2022/05/18 08:42:44;;;;;;;6.30;4.20;;;23.40;97.60;;;;;;4912674;28;20640;-88
2022/05/18 08:45:13;;;;;;;4.47;4.17;;;23.50;98.20;;;;;;4909862;28;21097;-89
2022/05/18 08:47:45;;;;;;;5.00;4.60;;;23.70;99.30;;;;;;4899206;29;20282;-90
2022/05/18 08:50:18;;;;;;;4.13;3.83;;;23.70;99.60;;;;;;4907583;28;20443;-89
2022/05/18 08:53:08;;;;;;;5.73;3.97;;;23.60;98.00;;;;;;4912750;28;20549;-89
2022/05/18 08:55:53;;;;;;;4.30;3.90;;;23.50;98.10;;;;;;4909811;28;21956;-88
2022/05/18 08:58:35;;;;;;;4.67;4.17;;;23.50;95.80;;;;;;4925831;28;20449;-89
2022/05/18 09:01:10;;;;;;;4.90;4.60;;;23.70;96.20;;;;;;4915595;28;20494;-89
2022/05/18 09:03:46;;;;;;;4.60;4.30;;;23.90;96.80;;;;;;4912896;28;20442;-88
2022/05/18 09:06:33;;;;;;;6.80;4.27;;;23.90;98.50;;;;;;4935427;28;20808;-89
2022/05/18 09:11:56;;;;;;;6.63;4.47;;;24.10;97.00;;;;;;4936593;28;20473;-91
2022/05/18 09:14:24;;;;;;;5.47;4.40;;;24.20;98.10;;;;;;4909683;28;20457;-88
2022/05/18 09:17:08;;;;;;;5.40;4.90;;;24.20;97.10;;;;;;4918484;28;20443;-90
2022/05/18 09:19:52;;;;;;;7.00;4.63;;;24.30;98.70;;;;;;4931012;28;20561;-89
2022/05/18 09:22:30;;;;;;;5.37;4.23;;;24.40;97.90;;;;;;4930096;28;20446;-89
2022/05/18 09:25:27;;;;;;;5.43;4.53;;;24.60;95.40;;;;;;4918695;28;21647;-90
2022/05/18 09:28:26;;;;;;;6.47;4.10;;;24.90;96.60;;;;;;4923086;28;20437;-90
2022/05/18 09:31:14;;;;;;;5.57;4.10;;;25.10;95.80;;;;;;4913830;28;20437;-90
2022/05/18 09:34:16;;;;;;;4.53;4.13;;;25.00;97.30;;;;;;4933909;28;20525;-93
2022/05/18 09:37:24;;;;;;;4.40;4.00;;;25.00;97.40;;;;;;4854506;29;20972;-90
2022/05/18 09:40:04;;;;;;;4.40;4.10;;;25.10;95.50;;;;;;4903545;28;20496;-91
2022/05/18 09:42:34;;;;;;;4.10;3.80;;;25.40;94.20;;;;;;4914524;28;20434;-89
2022/05/18 09:45:06;;;;;;;4.57;4.20;;;25.40;93.20;;;;;;4915480;29;20538;-90
2022/05/18 09:47:58;;;;;;;6.07;4.13;;;25.60;93.00;;;;;;4913482;28;20749;-91
2022/05/18 09:50:23;;;;;;;4.33;3.93;;;25.60;92.70;;;;;;4902880;28;20455;-91
2022/05/18 09:52:51;;;;;;;4.07;3.73;;;25.60;91.40;;;;;;4919714;28;20956;-91
2022/05/18 09:55:32;;;;;;;3.60;3.30;;;25.50;91.70;;;;;;4917294;28;20286;-95
2022/05/18 09:58:29;;;;;;;4.37;4.07;;;25.80;92.80;;;;;;4922529;28;20437;-96
2022/05/18 10:07:36;;;;;;;4.40;3.80;;;26.20;93.00;;;;;;4928754;28;20445;-95
2022/05/18 10:10:13;;;;;;;3.77;3.47;;;26.00;93.10;;;;;;4929655;28;20505;-96
2022/05/18 10:13:12;;;;;;;4.27;3.87;;;26.00;91.50;;;;;;4915604;28;20459;-93
2022/05/18 10:15:42;;;;;;;3.63;3.33;;;26.00;90.40;;;;;;4919847;28;20976;-93
2022/05/18 10:18:23;;;;;;;5.00;3.90;;;26.10;90.30;;;;;;4907912;28;20461;-94
2022/05/18 10:21:31;;;;;;;3.97;3.57;;;26.30;90.90;;;;;;4917119;28;20497;-96
2022/05/18 10:24:08;;;;;;;4.77;3.80;;;26.50;89.60;;;;;;4884501;28;20459;-89
2022/05/18 10:26:36;;;;;;;3.83;3.43;;;26.80;85.80;;;;;;4896833;28;20890;-90
2022/05/18 10:29:23;;;;;;;4.80;4.10;;;27.00;90.20;;;;;;4898466;28;20435;-90
2022/05/18 10:32:10;;;;;;;6.30;3.97;;;26.60;88.20;;;;;;4933189;28;20542;-91
2022/05/18 10:34:45;;;;;;;3.63;3.33;;;26.50;88.10;;;;;;4916949;28;20457;-90
2022/05/18 10:37:13;;;;;;;3.70;3.40;;;26.50;86.80;;;;;;4932185;28;20446;-87
2022/05/18 10:39:39;;;;;;;3.73;3.50;;;26.90;88.70;;;;;;4907942;28;20569;-88
2022/05/18 10:42:28;;;;;;;3.80;3.57;;;26.90;84.60;;;;;;4916772;28;20581;-88
2022/05/18 10:44:56;;;;;;;4.00;3.53;;;26.70;84.70;;;;;;4916714;28;20195;-88
2022/05/18 10:47:29;;;;;;;3.67;3.37;;;27.00;80.10;;;;;;4917020;28;20597;-88
2022/05/18 10:50:27;;;;;;;4.27;3.03;;;27.00;85.20;;;;;;4914313;28;20503;-89
2022/05/18 10:53:00;;;;;;;3.60;3.40;;;26.90;85.30;;;;;;4915184;28;20502;-89
2022/05/18 10:55:28;;;;;;;3.73;3.03;;;26.70;77.70;;;;;;4902769;28;20471;-88
2022/05/18 10:58:15;;;;;;;3.63;3.33;;;26.80;86.10;;;;;;4921410;28;21168;-88
2022/05/18 11:00:57;;;;;;;3.20;2.90;;;27.20;88.00;;;;;;4908263;29;20545;-89
2022/05/18 11:03:38;;;;;;;2.70;2.50;;;27.40;85.00;;;;;;4931511;28;20529;-91
2022/05/18 11:06:14;;;;;;;3.00;2.80;;;27.60;75.70;;;;;;4911638;28;20923;-89
2022/05/18 11:08:40;;;;;;;3.90;2.60;;;27.30;77.10;;;;;;4907600;28;20438;-89
2022/05/18 11:11:16;;;;;;;3.20;2.90;;;27.40;80.30;;;;;;4901062;28;20505;-90
2022/05/18 11:14:06;;;;;;;2.30;2.20;;;27.40;84.20;;;;;;4904604;28;20190;-89
2022/05/18 11:16:38;;;;;;;2.80;2.60;;;27.80;78.80;;;;;;4888562;28;20509;-90
2022/05/18 11:19:21;;;;;;;3.43;3.13;;;28.00;80.50;;;;;;4913411;28;20452;-90
2022/05/18 11:22:29;;;;;;;2.90;2.70;;;27.50;79.90;;;;;;4913729;28;20478;-90
2022/05/18 11:25:21;;;;;;;3.30;3.00;;;27.50;80.50;;;;;;4910365;28;20453;-89
2022/05/18 11:27:55;;;;;;;3.10;2.80;;;27.80;78.70;;;;;;4902459;28;20477;-89
2022/05/18 11:30:42;;;;;;;5.23;2.97;;;28.00;79.90;;;;;;4901412;28;20440;-92
2022/05/18 11:33:35;;;;;;;3.00;2.80;;;27.90;79.60;;;;;;4910552;28;20442;-90
2022/05/18 11:36:08;;;;;;;2.80;2.60;;;28.00;79.80;;;;;;4912379;28;20443;-89
2022/05/18 11:38:51;;;;;;;3.27;2.63;;;27.90;75.80;;;;;;4918321;28;20443;-89
2022/05/18 11:41:35;;;;;;;3.60;2.83;;;28.00;75.70;;;;;;4907221;28;20486;-89
2022/05/18 11:44:14;;;;;;;2.33;2.23;;;28.40;70.50;;;;;;4912386;28;20565;-89
2022/05/18 11:46:42;;;;;;;3.23;2.90;;;28.20;66.60;;;;;;4899637;28;20450;-88
2022/05/18 11:49:19;;;;;;;3.23;2.93;;;28.40;71.60;;;;;;4906677;28;20479;-88
2022/05/18 11:51:58;;;;;;;5.00;3.03;;;28.30;77.50;;;;;;4926166;28;20465;-88
2022/05/18 11:55:00;;;;;;;2.90;2.60;;;28.20;72.30;;;;;;4930436;28;20532;-88
2022/05/18 11:58:21;;;;;;;4.73;2.97;;;28.10;71.00;;;;;;4911645;28;20457;-89
2022/05/18 12:01:14;;;;;;;3.90;2.67;;;28.70;75.10;;;;;;4911550;28;20541;-88
2022/05/18 12:04:24;;;;;;;4.50;2.60;;;28.50;71.60;;;;;;4915150;28;20450;-88
2022/05/18 12:07:10;;;;;;;3.73;3.23;;;28.70;69.00;;;;;;4897384;28;20462;-88
2022/05/18 12:09:55;;;;;;;4.33;3.03;;;28.70;75.50;;;;;;4904018;28;20458;-84
2022/05/18 12:12:35;;;;;;;2.93;2.73;;;28.90;65.30;;;;;;4885934;29;20461;-84
2022/05/18 12:15:39;;;;;;;2.77;2.40;;;28.60;62.80;;;;;;4916787;28;20455;-85
2022/05/18 12:18:11;;;;;;;4.20;2.80;;;28.50;64.90;;;;;;4892983;28;20590;-85
2022/05/18 12:20:55;;;;;;;3.40;2.97;;;28.50;76.40;;;;;;4907392;28;20512;-85
2022/05/18 12:23:28;;;;;;;2.80;2.60;;;28.40;70.80;;;;;;4928538;28;20445;-88
2022/05/18 12:25:54;;;;;;;3.10;2.80;;;28.60;69.50;;;;;;4906001;28;20450;-89
2022/05/18 12:28:20;;;;;;;3.90;2.60;;;29.00;73.50;;;;;;4914450;28;20438;-88
2022/05/18 12:30:46;;;;;;;4.60;2.57;;;28.80;69.80;;;;;;4912524;28;20447;-88
2022/05/18 12:33:13;;;;;;;5.00;2.97;;;29.00;66.20;;;;;;4907294;29;20447;-89
2022/05/18 12:36:02;;;;;;;3.30;2.37;;;29.10;62.70;;;;;;4912113;28;20474;-87
2022/05/18 12:38:51;;;;;;;2.70;2.50;;;29.10;69.40;;;;;;4922445;28;20443;-89
2022/05/18 12:41:16;;;;;;;2.73;2.53;;;29.30;61.70;;;;;;4901162;28;20486;-86
2022/05/18 12:44:22;;;;;;;5.47;2.63;;;29.20;68.60;;;;;;4905636;28;20439;-91
2022/05/18 12:47:03;;;;;;;2.97;2.77;;;29.00;71.50;;;;;;4907074;28;20707;-89
2022/05/18 12:50:04;;;;;;;3.07;2.87;;;28.70;67.00;;;;;;4903263;28;20477;-93
2022/05/18 12:52:29;;;;;;;2.70;2.50;;;28.90;68.00;;;;;;4898862;28;20503;-93
2022/05/18 12:54:59;;;;;;;2.50;2.40;;;29.40;69.10;;;;;;4905634;28;20449;-94
2022/05/18 12:57:53;;;;;;;5.17;3.27;;;29.50;72.00;;;;;;4915968;28;21900;-96
2022/05/18 13:00:39;;;;;;;3.30;2.97;;;29.30;68.20;;;;;;4931278;28;20532;-96
2022/05/18 13:03:10;;;;;;;3.67;2.60;;;29.40;68.70;;;;;;4912509;28;20443;-91
2022/05/18 13:05:44;;;;;;;3.00;2.53;;;29.40;68.60;;;;;;4897970;28;20450;-95
2022/05/18 13:08:16;;;;;;;2.70;2.50;;;29.50;66.90;;;;;;4892114;28;20819;-95
2022/05/18 13:11:28;;;;;;;4.10;2.77;;;29.40;69.80;;;;;;4906599;28;20438;-94
2022/05/18 13:14:00;;;;;;;2.77;2.57;;;29.00;68.30;;;;;;4917778;28;20446;-92
2022/05/18 13:16:38;;;;;;;3.30;3.10;;;29.00;69.00;;;;;;4932333;28;20439;-93
2022/05/18 13:19:13;;;;;;;3.20;3.00;;;29.30;72.00;;;;;;4914376;28;20575;-92
2022/05/18 13:22:20;;;;;;;3.10;2.80;;;29.50;71.70;;;;;;4915717;28;20501;-91
2022/05/18 13:25:00;;;;;;;2.87;2.67;;;29.40;65.80;;;;;;4916209;28;20496;-89
2022/05/18 13:27:35;;;;;;;3.20;2.90;;;29.50;61.00;;;;;;4905170;28;20494;-88
2022/05/18 13:30:07;;;;;;;3.20;2.90;;;29.80;65.00;;;;;;4908300;28;20446;-89
2022/05/18 13:32:35;;;;;;;3.13;2.80;;;30.10;64.00;;;;;;4915213;28;20521;-88
2022/05/18 13:35:19;;;;;;;3.60;2.77;;;29.90;67.20;;;;;;4933839;28;22064;-93
2022/05/18 13:37:50;;;;;;;3.03;2.70;;;30.00;65.50;;;;;;4909155;28;20451;-90
2022/05/18 13:40:15;;;;;;;3.00;2.80;;;29.90;64.40;;;;;;4913397;28;21735;-88
2022/05/18 13:42:43;;;;;;;3.23;2.93;;;29.70;68.10;;;;;;4921635;28;20450;-89